sensor_id;sensor_type;location;lat;lon;timestamp;P1;durP1;ratioP1;P2;durP2;ratioP2
42226;SDS011;27892;52.378;13.122;2023-06-05T00:01:38;1.60;;;1.50;;
42226;SDS011;27892;52.378;13.122;2023-06-05T00:04:03;1.47;;;1.37;;
42226;SDS011;27892;52.378;13.122;2023-06-05T00:06:29;2.10;;;1.93;;
42226;SDS011;27892;52.378;13.122;2023-06-05T00:08:56;2.03;;;1.87;;
42226;SDS011;27892;52.378;13.122;2023-06-05T00:11:23;2.27;;;2.07;;
42226;SDS011;27892;52.378;13.122;2023-06-05T00:13:49;2.00;;;1.80;;
42226;SDS011;27892;52.378;13.122;2023-06-05T00:16:15;2.93;;;2.33;;
42226;SDS011;27892;52.378;13.122;2023-06-05T00:18:41;2.93;;;2.33;;
42226;SDS011;27892;52.378;13.122;2023-06-05T00:21:09;2.30;;;2.10;;
42226;SDS011;27892;52.378;13.122;2023-06-05T00:23:35;2.37;;;2.10;;
42226;SDS011;27892;52.378;13.122;2023-06-05T00:26:00;3.03;;;2.73;;
42226;SDS011;27892;52.378;13.122;2023-06-05T00:28:26;3.87;;;2.50;;
42226;SDS011;27892;52.378;13.122;2023-06-05T00:30:53;3.20;;;2.30;;
42226;SDS011;27892;52.378;13.122;2023-06-05T00:33:19;3.20;;;2.57;;
42226;SDS011;27892;52.378;13.122;2023-06-05T00:35:44;3.10;;;2.80;;
42226;SDS011;27892;52.378;13.122;2023-06-05T00:38:10;3.00;;;2.60;;
42226;SDS011;27892;52.378;13.122;2023-06-05T00:40:36;3.17;;;2.70;;
42226;SDS011;27892;52.378;13.122;2023-06-05T00:43:01;2.43;;;2.23;;
42226;SDS011;27892;52.378;13.122;2023-06-05T00:45:27;2.80;;;2.50;;
42226;SDS011;27892;52.378;13.122;2023-06-05T00:47:53;2.70;;;2.50;;
42226;SDS011;27892;52.378;13.122;2023-06-05T00:50:19;2.50;;;2.30;;
42226;SDS011;27892;52.378;13.122;2023-06-05T00:52:49;2.47;;;2.27;;
42226;SDS011;27892;52.378;13.122;2023-06-05T00:55:16;2.50;;;2.30;;
42226;SDS011;27892;52.378;13.122;2023-06-05T00:57:42;1.93;;;1.83;;
42226;SDS011;27892;52.378;13.122;2023-06-05T01:00:09;2.03;;;1.90;;
42226;SDS011;27892;52.378;13.122;2023-06-05T01:02:37;1.93;;;1.83;;
42226;SDS011;27892;52.378;13.122;2023-06-05T01:05:05;1.77;;;1.67;;
42226;SDS011;27892;52.378;13.122;2023-06-05T01:07:34;1.93;;;1.83;;
42226;SDS011;27892;52.378;13.122;2023-06-05T01:10:04;1.73;;;1.60;;
42226;SDS011;27892;52.378;13.122;2023-06-05T01:15:18;1.80;;;1.70;;
42226;SDS011;27892;52.378;13.122;2023-06-05T01:17:53;1.80;;;1.70;;
42226;SDS011;27892;52.378;13.122;2023-06-05T01:20:31;3.70;;;2.03;;
42226;SDS011;27892;52.378;13.122;2023-06-05T01:23:09;1.70;;;1.60;;
42226;SDS011;27892;52.378;13.122;2023-06-05T01:25:36;1.80;;;1.70;;
42226;SDS011;27892;52.378;13.122;2023-06-05T01:28:07;1.70;;;1.50;;
42226;SDS011;27892;52.378;13.122;2023-06-05T01:33:11;1.93;;;1.83;;
42226;SDS011;27892;52.378;13.122;2023-06-05T01:35:42;2.07;;;1.90;;
42226;SDS011;27892;52.378;13.122;2023-06-05T01:38:10;1.80;;;1.70;;
42226;SDS011;27892;52.378;13.122;2023-06-05T01:40:37;1.83;;;1.70;;
42226;SDS011;27892;52.378;13.122;2023-06-05T01:43:03;1.70;;;1.60;;
42226;SDS011;27892;52.378;13.122;2023-06-05T01:45:32;1.70;;;1.60;;
42226;SDS011;27892;52.378;13.122;2023-06-05T01:48:02;2.20;;;1.73;;
42226;SDS011;27892;52.378;13.122;2023-06-05T01:50:32;1.53;;;1.43;;
42226;SDS011;27892;52.378;13.122;2023-06-05T01:52:58;1.63;;;1.53;;
42226;SDS011;27892;52.378;13.122;2023-06-05T01:55:26;1.30;;;1.30;;
42226;SDS011;27892;52.378;13.122;2023-06-05T01:57:52;1.60;;;1.50;;
42226;SDS011;27892;52.378;13.122;2023-06-05T02:00:17;1.50;;;1.40;;
42226;SDS011;27892;52.378;13.122;2023-06-05T02:02:44;1.60;;;1.50;;
42226;SDS011;27892;52.378;13.122;2023-06-05T02:05:13;1.60;;;1.50;;
42226;SDS011;27892;52.378;13.122;2023-06-05T02:07:40;1.70;;;1.60;;
42226;SDS011;27892;52.378;13.122;2023-06-05T02:10:14;1.60;;;1.50;;
42226;SDS011;27892;52.378;13.122;2023-06-05T02:12:40;1.97;;;1.70;;
42226;SDS011;27892;52.378;13.122;2023-06-05T02:15:07;1.40;;;1.40;;
42226;SDS011;27892;52.378;13.122;2023-06-05T02:17:38;1.40;;;1.40;;
42226;SDS011;27892;52.378;13.122;2023-06-05T02:20:04;1.17;;;1.17;;
42226;SDS011;27892;52.378;13.122;2023-06-05T02:22:30;1.50;;;1.40;;
42226;SDS011;27892;52.378;13.122;2023-06-05T02:24:56;1.30;;;1.30;;
42226;SDS011;27892;52.378;13.122;2023-06-05T02:27:21;1.37;;;1.37;;
42226;SDS011;27892;52.378;13.122;2023-06-05T02:29:49;1.40;;;1.40;;
42226;SDS011;27892;52.378;13.122;2023-06-05T02:32:15;1.50;;;1.40;;
42226;SDS011;27892;52.378;13.122;2023-06-05T02:34:41;1.30;;;1.30;;
42226;SDS011;27892;52.378;13.122;2023-06-05T02:37:25;1.30;;;1.30;;
42226;SDS011;27892;52.378;13.122;2023-06-05T02:39:53;1.70;;;1.60;;
42226;SDS011;27892;52.378;13.122;2023-06-05T02:42:19;1.73;;;1.63;;
42226;SDS011;27892;52.378;13.122;2023-06-05T02:44:45;1.80;;;1.70;;
42226;SDS011;27892;52.378;13.122;2023-06-05T02:47:11;1.80;;;1.70;;
42226;SDS011;27892;52.378;13.122;2023-06-05T02:49:37;1.53;;;1.53;;
42226;SDS011;27892;52.378;13.122;2023-06-05T02:52:03;1.30;;;1.30;;
42226;SDS011;27892;52.378;13.122;2023-06-05T02:54:29;1.57;;;1.47;;
42226;SDS011;27892;52.378;13.122;2023-06-05T02:56:55;1.57;;;1.47;;
42226;SDS011;27892;52.378;13.122;2023-06-05T02:59:25;1.50;;;1.40;;
42226;SDS011;27892;52.378;13.122;2023-06-05T03:01:52;1.30;;;1.30;;
42226;SDS011;27892;52.378;13.122;2023-06-05T03:04:18;1.47;;;1.40;;
42226;SDS011;27892;52.378;13.122;2023-06-05T03:06:52;1.50;;;1.40;;
42226;SDS011;27892;52.378;13.122;2023-06-05T03:09:18;1.43;;;1.40;;
42226;SDS011;27892;52.378;13.122;2023-06-05T03:11:44;1.20;;;1.20;;
42226;SDS011;27892;52.378;13.122;2023-06-05T03:14:09;1.40;;;1.30;;
42226;SDS011;27892;52.378;13.122;2023-06-05T03:16:36;1.20;;;1.20;;
42226;SDS011;27892;52.378;13.122;2023-06-05T03:19:08;1.13;;;1.13;;
42226;SDS011;27892;52.378;13.122;2023-06-05T03:21:35;1.77;;;1.60;;
42226;SDS011;27892;52.378;13.122;2023-06-05T03:24:03;1.30;;;1.30;;
42226;SDS011;27892;52.378;13.122;2023-06-05T03:26:30;1.20;;;1.20;;
42226;SDS011;27892;52.378;13.122;2023-06-05T03:28:57;1.30;;;1.30;;
42226;SDS011;27892;52.378;13.122;2023-06-05T03:31:23;1.60;;;1.50;;
42226;SDS011;27892;52.378;13.122;2023-06-05T03:33:48;1.60;;;1.50;;
42226;SDS011;27892;52.378;13.122;2023-06-05T03:36:14;1.73;;;1.63;;
42226;SDS011;27892;52.378;13.122;2023-06-05T03:38:42;1.70;;;1.60;;
42226;SDS011;27892;52.378;13.122;2023-06-05T03:41:08;1.47;;;1.40;;
42226;SDS011;27892;52.378;13.122;2023-06-05T03:43:34;1.80;;;1.70;;
42226;SDS011;27892;52.378;13.122;2023-06-05T03:46:00;1.60;;;1.50;;
42226;SDS011;27892;52.378;13.122;2023-06-05T03:48:26;1.57;;;1.50;;
42226;SDS011;27892;52.378;13.122;2023-06-05T03:50:52;1.70;;;1.60;;
42226;SDS011;27892;52.378;13.122;2023-06-05T03:53:18;1.60;;;1.50;;
42226;SDS011;27892;52.378;13.122;2023-06-05T03:55:44;1.53;;;1.50;;
42226;SDS011;27892;52.378;13.122;2023-06-05T03:58:11;1.70;;;1.60;;
42226;SDS011;27892;52.378;13.122;2023-06-05T04:00:39;1.70;;;1.60;;
42226;SDS011;27892;52.378;13.122;2023-06-05T04:03:09;1.57;;;1.47;;
42226;SDS011;27892;52.378;13.122;2023-06-05T04:05:38;1.40;;;1.40;;
42226;SDS011;27892;52.378;13.122;2023-06-05T04:08:05;1.90;;;1.80;;
42226;SDS011;27892;52.378;13.122;2023-06-05T04:10:31;2.13;;;1.80;;
42226;SDS011;27892;52.378;13.122;2023-06-05T04:12:57;1.77;;;1.67;;
42226;SDS011;27892;52.378;13.122;2023-06-05T04:15:23;2.33;;;1.77;;
42226;SDS011;27892;52.378;13.122;2023-06-05T04:17:49;4.70;;;2.00;;
42226;SDS011;27892;52.378;13.122;2023-06-05T04:20:15;2.90;;;1.80;;
42226;SDS011;27892;52.378;13.122;2023-06-05T04:22:41;2.00;;;1.80;;
42226;SDS011;27892;52.378;13.122;2023-06-05T04:25:07;1.73;;;1.63;;
42226;SDS011;27892;52.378;13.122;2023-06-05T04:27:35;1.60;;;1.50;;
42226;SDS011;27892;52.378;13.122;2023-06-05T04:30:04;1.50;;;1.40;;
42226;SDS011;27892;52.378;13.122;2023-06-05T04:32:31;1.53;;;1.43;;
42226;SDS011;27892;52.378;13.122;2023-06-05T04:34:59;1.50;;;1.40;;
42226;SDS011;27892;52.378;13.122;2023-06-05T04:37:25;1.60;;;1.43;;
42226;SDS011;27892;52.378;13.122;2023-06-05T04:39:51;1.50;;;1.40;;
42226;SDS011;27892;52.378;13.122;2023-06-05T04:42:17;1.13;;;1.13;;
42226;SDS011;27892;52.378;13.122;2023-06-05T04:44:43;1.60;;;1.50;;
42226;SDS011;27892;52.378;13.122;2023-06-05T04:47:08;1.40;;;1.30;;
42226;SDS011;27892;52.378;13.122;2023-06-05T04:49:34;1.97;;;1.70;;
42226;SDS011;27892;52.378;13.122;2023-06-05T04:52:00;3.20;;;1.93;;
42226;SDS011;27892;52.378;13.122;2023-06-05T04:54:26;2.20;;;1.93;;
42226;SDS011;27892;52.378;13.122;2023-06-05T04:56:51;2.37;;;2.07;;
42226;SDS011;27892;52.378;13.122;2023-06-05T04:59:18;2.73;;;1.90;;
42226;SDS011;27892;52.378;13.122;2023-06-05T05:01:43;2.67;;;2.23;;
42226;SDS011;27892;52.378;13.122;2023-06-05T05:04:09;10.37;;;2.43;;
42226;SDS011;27892;52.378;13.122;2023-06-05T05:06:37;2.97;;;2.03;;
42226;SDS011;27892;52.378;13.122;2023-06-05T05:09:03;1.97;;;1.77;;
42226;SDS011;27892;52.378;13.122;2023-06-05T05:11:29;1.83;;;1.50;;
42226;SDS011;27892;52.378;13.122;2023-06-05T05:13:55;1.70;;;1.60;;
42226;SDS011;27892;52.378;13.122;2023-06-05T05:16:21;3.90;;;1.93;;
42226;SDS011;27892;52.378;13.122;2023-06-05T05:18:47;2.77;;;2.10;;
42226;SDS011;27892;52.378;13.122;2023-06-05T05:21:13;5.27;;;2.37;;
42226;SDS011;27892;52.378;13.122;2023-06-05T05:23:39;8.30;;;2.40;;
42226;SDS011;27892;52.378;13.122;2023-06-05T05:26:04;5.33;;;2.20;;
42226;SDS011;27892;52.378;13.122;2023-06-05T05:28:30;4.27;;;2.10;;
42226;SDS011;27892;52.378;13.122;2023-06-05T05:30:56;4.40;;;2.10;;
42226;SDS011;27892;52.378;13.122;2023-06-05T05:33:22;2.60;;;2.10;;
42226;SDS011;27892;52.378;13.122;2023-06-05T05:35:48;2.27;;;1.77;;
42226;SDS011;27892;52.378;13.122;2023-06-05T05:38:14;3.57;;;1.93;;
42226;SDS011;27892;52.378;13.122;2023-06-05T05:40:40;2.50;;;1.87;;
42226;SDS011;27892;52.378;13.122;2023-06-05T05:43:06;5.50;;;2.40;;
42226;SDS011;27892;52.378;13.122;2023-06-05T05:45:31;2.30;;;2.03;;
42226;SDS011;27892;52.378;13.122;2023-06-05T05:47:57;3.63;;;2.13;;
42226;SDS011;27892;52.378;13.122;2023-06-05T05:50:23;3.27;;;2.37;;
42226;SDS011;27892;52.378;13.122;2023-06-05T05:52:48;2.40;;;1.87;;
42226;SDS011;27892;52.378;13.122;2023-06-05T05:55:16;2.90;;;1.83;;
42226;SDS011;27892;52.378;13.122;2023-06-05T05:57:42;2.00;;;1.88;;
42226;SDS011;27892;52.378;13.122;2023-06-05T06:00:08;2.30;;;1.98;;
42226;SDS011;27892;52.378;13.122;2023-06-05T06:02:40;2.35;;;1.98;;
42226;SDS011;27892;52.378;13.122;2023-06-05T06:05:07;2.50;;;2.05;;
42226;SDS011;27892;52.378;13.122;2023-06-05T06:07:33;4.25;;;2.22;;
42226;SDS011;27892;52.378;13.122;2023-06-05T06:10:00;4.22;;;2.08;;
42226;SDS011;27892;52.378;13.122;2023-06-05T06:12:27;2.30;;;1.90;;
42226;SDS011;27892;52.378;13.122;2023-06-05T06:14:56;3.40;;;2.10;;
42226;SDS011;27892;52.378;13.122;2023-06-05T06:17:21;3.70;;;1.95;;
42226;SDS011;27892;52.378;13.122;2023-06-05T06:19:47;2.28;;;1.80;;
42226;SDS011;27892;52.378;13.122;2023-06-05T06:22:13;3.05;;;1.70;;
42226;SDS011;27892;52.378;13.122;2023-06-05T06:24:40;2.75;;;1.77;;
42226;SDS011;27892;52.378;13.122;2023-06-05T06:27:07;3.25;;;2.08;;
42226;SDS011;27892;52.378;13.122;2023-06-05T06:29:37;3.92;;;1.85;;
42226;SDS011;27892;52.378;13.122;2023-06-05T06:32:11;1.90;;;1.80;;
42226;SDS011;27892;52.378;13.122;2023-06-05T06:34:37;3.42;;;2.10;;
42226;SDS011;27892;52.378;13.122;2023-06-05T06:37:02;2.00;;;1.88;;
42226;SDS011;27892;52.378;13.122;2023-06-05T06:39:28;2.05;;;1.75;;
42226;SDS011;27892;52.378;13.122;2023-06-05T06:41:54;3.60;;;1.98;;
42226;SDS011;27892;52.378;13.122;2023-06-05T06:44:21;2.67;;;1.95;;
42226;SDS011;27892;52.378;13.122;2023-06-05T06:46:47;2.38;;;1.70;;
42226;SDS011;27892;52.378;13.122;2023-06-05T06:49:12;3.50;;;2.05;;
42226;SDS011;27892;52.378;13.122;2023-06-05T06:51:38;1.88;;;1.63;;
42226;SDS011;27892;52.378;13.122;2023-06-05T06:54:04;1.55;;;1.45;;
42226;SDS011;27892;52.378;13.122;2023-06-05T06:56:29;1.48;;;1.38;;
42226;SDS011;27892;52.378;13.122;2023-06-05T06:58:55;1.50;;;1.40;;
42226;SDS011;27892;52.378;13.122;2023-06-05T07:01:21;1.80;;;1.70;;
42226;SDS011;27892;52.378;13.122;2023-06-05T07:03:47;1.75;;;1.52;;
42226;SDS011;27892;52.378;13.122;2023-06-05T07:06:12;2.13;;;1.75;;
42226;SDS011;27892;52.378;13.122;2023-06-05T07:08:40;2.38;;;1.60;;
42226;SDS011;27892;52.378;13.122;2023-06-05T07:11:05;2.60;;;1.80;;
42226;SDS011;27892;52.378;13.122;2023-06-05T07:13:31;1.88;;;1.77;;
42226;SDS011;27892;52.378;13.122;2023-06-05T07:15:57;3.45;;;1.65;;
42226;SDS011;27892;52.378;13.122;2023-06-05T07:18:22;5.15;;;1.88;;
42226;SDS011;27892;52.378;13.122;2023-06-05T07:20:48;1.58;;;1.48;;
42226;SDS011;27892;52.378;13.122;2023-06-05T07:23:17;2.15;;;1.70;;
42226;SDS011;27892;52.378;13.122;2023-06-05T07:25:43;1.95;;;1.30;;
42226;SDS011;27892;52.378;13.122;2023-06-05T07:28:09;1.50;;;1.40;;
42226;SDS011;27892;52.378;13.122;2023-06-05T07:30:40;1.45;;;1.33;;
42226;SDS011;27892;52.378;13.122;2023-06-05T07:33:08;1.63;;;1.50;;
42226;SDS011;27892;52.378;13.122;2023-06-05T07:35:34;2.10;;;1.55;;
42226;SDS011;27892;52.378;13.122;2023-06-05T07:38:00;1.60;;;1.50;;
42226;SDS011;27892;52.378;13.122;2023-06-05T07:40:26;1.70;;;1.60;;
42226;SDS011;27892;52.378;13.122;2023-06-05T07:42:51;2.20;;;1.60;;
42226;SDS011;27892;52.378;13.122;2023-06-05T07:45:17;1.75;;;1.50;;
42226;SDS011;27892;52.378;13.122;2023-06-05T07:47:43;3.40;;;1.80;;
42226;SDS011;27892;52.378;13.122;2023-06-05T07:50:08;2.50;;;1.50;;
42226;SDS011;27892;52.378;13.122;2023-06-05T07:52:35;1.52;;;1.42;;
42226;SDS011;27892;52.378;13.122;2023-06-05T07:55:01;1.20;;;1.20;;
42226;SDS011;27892;52.378;13.122;2023-06-05T07:57:28;2.35;;;1.90;;
42226;SDS011;27892;52.378;13.122;2023-06-05T07:59:54;3.35;;;1.73;;
42226;SDS011;27892;52.378;13.122;2023-06-05T08:02:20;1.20;;;1.20;;
42226;SDS011;27892;52.378;13.122;2023-06-05T08:04:46;1.50;;;1.30;;
42226;SDS011;27892;52.378;13.122;2023-06-05T08:07:12;2.15;;;1.60;;
42226;SDS011;27892;52.378;13.122;2023-06-05T08:09:37;2.63;;;1.40;;
42226;SDS011;27892;52.378;13.122;2023-06-05T08:12:04;2.05;;;1.60;;
42226;SDS011;27892;52.378;13.122;2023-06-05T08:14:30;2.85;;;1.75;;
42226;SDS011;27892;52.378;13.122;2023-06-05T08:16:57;2.95;;;1.42;;
42226;SDS011;27892;52.378;13.122;2023-06-05T08:19:22;1.42;;;1.33;;
42226;SDS011;27892;52.378;13.122;2023-06-05T08:21:52;3.28;;;1.80;;
42226;SDS011;27892;52.378;13.122;2023-06-05T08:24:22;2.75;;;1.60;;
42226;SDS011;27892;52.378;13.122;2023-06-05T08:26:48;1.70;;;1.33;;
42226;SDS011;27892;52.378;13.122;2023-06-05T08:29:13;1.92;;;1.58;;
42226;SDS011;27892;52.378;13.122;2023-06-05T08:31:39;2.72;;;1.70;;
42226;SDS011;27892;52.378;13.122;2023-06-05T08:34:05;1.58;;;1.20;;
42226;SDS011;27892;52.378;13.122;2023-06-05T08:36:31;1.52;;;1.40;;
42226;SDS011;27892;52.378;13.122;2023-06-05T08:38:58;1.95;;;1.35;;
42226;SDS011;27892;52.378;13.122;2023-06-05T08:41:24;3.20;;;1.73;;
42226;SDS011;27892;52.378;13.122;2023-06-05T08:43:50;2.75;;;1.60;;
42226;SDS011;27892;52.378;13.122;2023-06-05T08:46:17;4.07;;;1.70;;
42226;SDS011;27892;52.378;13.122;2023-06-05T08:51:13;2.10;;;1.50;;
42226;SDS011;27892;52.378;13.122;2023-06-05T08:53:42;1.70;;;1.52;;
42226;SDS011;27892;52.378;13.122;2023-06-05T08:56:12;3.08;;;1.60;;
42226;SDS011;27892;52.378;13.122;2023-06-05T08:58:38;2.60;;;1.83;;
42226;SDS011;27892;52.378;13.122;2023-06-05T09:01:07;2.10;;;1.75;;
42226;SDS011;27892;52.378;13.122;2023-06-05T09:03:34;1.73;;;1.45;;
42226;SDS011;27892;52.378;13.122;2023-06-05T09:06:00;1.60;;;1.50;;
42226;SDS011;27892;52.378;13.122;2023-06-05T09:08:29;3.75;;;1.67;;
42226;SDS011;27892;52.378;13.122;2023-06-05T09:13:46;1.83;;;1.50;;
42226;SDS011;27892;52.378;13.122;2023-06-05T09:16:12;1.35;;;1.25;;
42226;SDS011;27892;52.378;13.122;2023-06-05T09:18:59;1.48;;;1.38;;
42226;SDS011;27892;52.378;13.122;2023-06-05T09:21:24;2.35;;;1.80;;
42226;SDS011;27892;52.378;13.122;2023-06-05T09:29:31;2.03;;;1.50;;
42226;SDS011;27892;52.378;13.122;2023-06-05T09:32:02;1.88;;;1.70;;
42226;SDS011;27892;52.378;13.122;2023-06-05T09:34:30;2.53;;;1.70;;
42226;SDS011;27892;52.378;13.122;2023-06-05T09:37:01;1.27;;;1.17;;
42226;SDS011;27892;52.378;13.122;2023-06-05T09:39:29;1.30;;;1.20;;
42226;SDS011;27892;52.378;13.122;2023-06-05T09:41:56;1.52;;;1.40;;
42226;SDS011;27892;52.378;13.122;2023-06-05T09:44:24;1.50;;;1.40;;
42226;SDS011;27892;52.378;13.122;2023-06-05T09:49:19;1.65;;;1.55;;
42226;SDS011;27892;52.378;13.122;2023-06-05T09:52:06;1.75;;;1.55;;
42226;SDS011;27892;52.378;13.122;2023-06-05T09:54:34;1.23;;;1.20;;
42226;SDS011;27892;52.378;13.122;2023-06-05T09:57:02;1.58;;;1.48;;
42226;SDS011;27892;52.378;13.122;2023-06-05T09:59:30;2.35;;;1.50;;
42226;SDS011;27892;52.378;13.122;2023-06-05T10:02:04;1.70;;;1.40;;
42226;SDS011;27892;52.378;13.122;2023-06-05T10:04:42;1.65;;;1.50;;
42226;SDS011;27892;52.378;13.122;2023-06-05T10:07:12;1.60;;;1.50;;
42226;SDS011;27892;52.378;13.122;2023-06-05T10:09:38;1.50;;;1.40;;
42226;SDS011;27892;52.378;13.122;2023-06-05T10:12:05;2.10;;;1.70;;
42226;SDS011;27892;52.378;13.122;2023-06-05T10:14:34;3.30;;;1.60;;
42226;SDS011;27892;52.378;13.122;2023-06-05T10:17:06;1.58;;;1.40;;
42226;SDS011;27892;52.378;13.122;2023-06-05T10:19:32;1.88;;;1.73;;
42226;SDS011;27892;52.378;13.122;2023-06-05T10:21:58;1.70;;;1.60;;
42226;SDS011;27892;52.378;13.122;2023-06-05T10:24:28;2.38;;;1.67;;
42226;SDS011;27892;52.378;13.122;2023-06-05T10:38:17;1.98;;;1.60;;
42226;SDS011;27892;52.378;13.122;2023-06-05T10:41:08;1.52;;;1.42;;
42226;SDS011;27892;52.378;13.122;2023-06-05T10:43:35;1.73;;;1.63;;
42226;SDS011;27892;52.378;13.122;2023-06-05T10:46:45;1.80;;;1.70;;
42226;SDS011;27892;52.378;13.122;2023-06-05T10:54:10;1.80;;;1.70;;
42226;SDS011;27892;52.378;13.122;2023-06-05T10:59:23;2.00;;;1.75;;
42226;SDS011;27892;52.378;13.122;2023-06-05T11:07:19;3.10;;;1.95;;
42226;SDS011;27892;52.378;13.122;2023-06-05T11:12:52;1.50;;;1.40;;
42226;SDS011;27892;52.378;13.122;2023-06-05T11:15:16;2.25;;;1.50;;
42226;SDS011;27892;52.378;13.122;2023-06-05T11:18:25;1.50;;;1.40;;
42226;SDS011;27892;52.378;13.122;2023-06-05T11:20:51;4.40;;;2.05;;
42226;SDS011;27892;52.378;13.122;2023-06-05T11:23:17;2.50;;;1.92;;
42226;SDS011;27892;52.378;13.122;2023-06-05T11:25:43;1.80;;;1.70;;
42226;SDS011;27892;52.378;13.122;2023-06-05T11:28:09;2.05;;;1.85;;
42226;SDS011;27892;52.378;13.122;2023-06-05T11:30:41;4.50;;;1.92;;
42226;SDS011;27892;52.378;13.122;2023-06-05T11:33:09;4.10;;;2.38;;
42226;SDS011;27892;52.378;13.122;2023-06-05T11:35:42;2.15;;;1.95;;
42226;SDS011;27892;52.378;13.122;2023-06-05T11:38:13;2.40;;;1.80;;
42226;SDS011;27892;52.378;13.122;2023-06-05T11:40:43;3.80;;;2.00;;
42226;SDS011;27892;52.378;13.122;2023-06-05T11:43:10;2.10;;;1.60;;
42226;SDS011;27892;52.378;13.122;2023-06-05T11:45:38;2.90;;;1.77;;
42226;SDS011;27892;52.378;13.122;2023-06-05T11:50:35;2.13;;;1.92;;
42226;SDS011;27892;52.378;13.122;2023-06-05T11:53:08;1.50;;;1.40;;
42226;SDS011;27892;52.378;13.122;2023-06-05T11:55:34;1.80;;;1.70;;
42226;SDS011;27892;52.378;13.122;2023-06-05T11:58:27;2.17;;;1.70;;
42226;SDS011;27892;52.378;13.122;2023-06-05T12:06:32;2.70;;;1.98;;
42226;SDS011;27892;52.378;13.122;2023-06-05T12:09:08;3.28;;;1.70;;
42226;SDS011;27892;52.378;13.122;2023-06-05T12:11:34;2.25;;;1.60;;
42226;SDS011;27892;52.378;13.122;2023-06-05T12:14:00;1.70;;;1.60;;
42226;SDS011;27892;52.378;13.122;2023-06-05T12:16:29;1.80;;;1.70;;
42226;SDS011;27892;52.378;13.122;2023-06-05T12:18:56;1.80;;;1.70;;
42226;SDS011;27892;52.378;13.122;2023-06-05T12:21:23;2.05;;;1.52;;
42226;SDS011;27892;52.378;13.122;2023-06-05T12:23:50;2.40;;;1.65;;
42226;SDS011;27892;52.378;13.122;2023-06-05T12:26:16;2.00;;;1.90;;
42226;SDS011;27892;52.378;13.122;2023-06-05T12:28:43;2.92;;;1.80;;
42226;SDS011;27892;52.378;13.122;2023-06-05T12:31:11;3.05;;;1.80;;
42226;SDS011;27892;52.378;13.122;2023-06-05T12:33:58;2.45;;;1.65;;
42226;SDS011;27892;52.378;13.122;2023-06-05T12:36:24;1.50;;;1.40;;
42226;SDS011;27892;52.378;13.122;2023-06-05T12:38:50;2.20;;;1.98;;
42226;SDS011;27892;52.378;13.122;2023-06-05T12:41:15;2.33;;;1.92;;
42226;SDS011;27892;52.378;13.122;2023-06-05T12:43:41;1.60;;;1.50;;
42226;SDS011;27892;52.378;13.122;2023-06-05T12:46:07;2.58;;;1.50;;
42226;SDS011;27892;52.378;13.122;2023-06-05T12:48:33;3.42;;;2.00;;
42226;SDS011;27892;52.378;13.122;2023-06-05T12:51:02;4.07;;;1.90;;
42226;SDS011;27892;52.378;13.122;2023-06-05T12:53:27;1.90;;;1.80;;
42226;SDS011;27892;52.378;13.122;2023-06-05T12:55:53;3.08;;;1.77;;
42226;SDS011;27892;52.378;13.122;2023-06-05T12:58:19;1.98;;;1.65;;
42226;SDS011;27892;52.378;13.122;2023-06-05T13:00:44;2.97;;;1.80;;
42226;SDS011;27892;52.378;13.122;2023-06-05T13:03:10;3.42;;;1.80;;
42226;SDS011;27892;52.378;13.122;2023-06-05T13:05:37;2.10;;;1.90;;
42226;SDS011;27892;52.378;13.122;2023-06-05T13:08:03;2.53;;;1.92;;
42226;SDS011;27892;52.378;13.122;2023-06-05T13:10:29;2.47;;;1.90;;
42226;SDS011;27892;52.378;13.122;2023-06-05T13:12:54;2.17;;;1.55;;
42226;SDS011;27892;52.378;13.122;2023-06-05T13:15:20;1.67;;;1.58;;
42226;SDS011;27892;52.378;13.122;2023-06-05T13:17:46;1.90;;;1.50;;
42226;SDS011;27892;52.378;13.122;2023-06-05T13:20:12;2.05;;;1.73;;
42226;SDS011;27892;52.378;13.122;2023-06-05T13:22:38;2.90;;;2.00;;
42226;SDS011;27892;52.378;13.122;2023-06-05T13:25:05;2.22;;;1.80;;
42226;SDS011;27892;52.378;13.122;2023-06-05T13:27:32;1.60;;;1.50;;
42226;SDS011;27892;52.378;13.122;2023-06-05T13:29:58;1.70;;;1.60;;
42226;SDS011;27892;52.378;13.122;2023-06-05T13:32:24;1.40;;;1.30;;
42226;SDS011;27892;52.378;13.122;2023-06-05T13:34:50;2.63;;;1.50;;
42226;SDS011;27892;52.378;13.122;2023-06-05T13:37:16;1.23;;;1.23;;
42226;SDS011;27892;52.378;13.122;2023-06-05T13:39:42;1.40;;;1.30;;
42226;SDS011;27892;52.378;13.122;2023-06-05T13:42:07;1.48;;;1.38;;
42226;SDS011;27892;52.378;13.122;2023-06-05T13:44:33;1.50;;;1.40;;
42226;SDS011;27892;52.378;13.122;2023-06-05T13:46:59;4.97;;;2.10;;
42226;SDS011;27892;52.378;13.122;2023-06-05T13:49:28;1.83;;;1.45;;
42226;SDS011;27892;52.378;13.122;2023-06-05T13:51:56;1.63;;;1.52;;
42226;SDS011;27892;52.378;13.122;2023-06-05T13:54:22;1.67;;;1.40;;
42226;SDS011;27892;52.378;13.122;2023-06-05T13:56:48;1.95;;;1.70;;
42226;SDS011;27892;52.378;13.122;2023-06-05T13:59:14;1.52;;;1.42;;
42226;SDS011;27892;52.378;13.122;2023-06-05T14:01:40;1.50;;;1.40;;
42226;SDS011;27892;52.378;13.122;2023-06-05T14:04:05;1.30;;;1.23;;
42226;SDS011;27892;52.378;13.122;2023-06-05T14:06:31;1.77;;;1.60;;
42226;SDS011;27892;52.378;13.122;2023-06-05T14:08:57;1.20;;;1.20;;
42226;SDS011;27892;52.378;13.122;2023-06-05T14:11:23;2.22;;;1.55;;
42226;SDS011;27892;52.378;13.122;2023-06-05T14:13:48;3.67;;;1.88;;
42226;SDS011;27892;52.378;13.122;2023-06-05T14:16:15;2.78;;;2.00;;
42226;SDS011;27892;52.378;13.122;2023-06-05T14:18:41;3.00;;;1.60;;
42226;SDS011;27892;52.378;13.122;2023-06-05T14:21:06;2.20;;;2.00;;
42226;SDS011;27892;52.378;13.122;2023-06-05T14:23:32;2.90;;;2.22;;
42226;SDS011;27892;52.378;13.122;2023-06-05T14:25:58;2.65;;;1.70;;
42226;SDS011;27892;52.378;13.122;2023-06-05T14:28:24;1.60;;;1.50;;
42226;SDS011;27892;52.378;13.122;2023-06-05T14:30:50;2.92;;;1.95;;
42226;SDS011;27892;52.378;13.122;2023-06-05T14:33:16;1.48;;;1.40;;
42226;SDS011;27892;52.378;13.122;2023-06-05T14:35:43;1.70;;;1.60;;
42226;SDS011;27892;52.378;13.122;2023-06-05T14:38:09;1.50;;;1.40;;
42226;SDS011;27892;52.378;13.122;2023-06-05T14:40:38;6.32;;;2.67;;
42226;SDS011;27892;52.378;13.122;2023-06-05T14:43:04;2.03;;;1.88;;
42226;SDS011;27892;52.378;13.122;2023-06-05T14:45:31;2.40;;;1.90;;
42226;SDS011;27892;52.378;13.122;2023-06-05T14:47:56;1.58;;;1.40;;
42226;SDS011;27892;52.378;13.122;2023-06-05T14:50:22;1.50;;;1.40;;
42226;SDS011;27892;52.378;13.122;2023-06-05T14:52:48;1.38;;;1.27;;
42226;SDS011;27892;52.378;13.122;2023-06-05T14:55:14;1.35;;;1.25;;
42226;SDS011;27892;52.378;13.122;2023-06-05T14:57:39;1.17;;;1.17;;
42226;SDS011;27892;52.378;13.122;2023-06-05T15:00:05;1.50;;;1.40;;
42226;SDS011;27892;52.378;13.122;2023-06-05T15:02:32;6.30;;;2.05;;
42226;SDS011;27892;52.378;13.122;2023-06-05T15:04:59;1.20;;;1.20;;
42226;SDS011;27892;52.378;13.122;2023-06-05T15:07:24;1.75;;;1.65;;
42226;SDS011;27892;52.378;13.122;2023-06-05T15:09:50;2.75;;;1.90;;
42226;SDS011;27892;52.378;13.122;2023-06-05T15:12:16;2.20;;;2.00;;
42226;SDS011;27892;52.378;13.122;2023-06-05T15:14:42;2.72;;;1.92;;
42226;SDS011;27892;52.378;13.122;2023-06-05T15:17:08;1.88;;;1.63;;
42226;SDS011;27892;52.378;13.122;2023-06-05T15:19:34;2.97;;;1.55;;
42226;SDS011;27892;52.378;13.122;2023-06-05T15:22:00;1.48;;;1.38;;
42226;SDS011;27892;52.378;13.122;2023-06-05T15:24:26;1.50;;;1.40;;
42226;SDS011;27892;52.378;13.122;2023-06-05T15:26:52;0.80;;;0.80;;
42226;SDS011;27892;52.378;13.122;2023-06-05T15:29:18;1.08;;;1.08;;